sensor_id;sensor_type;location;lat;lon;timestamp;P1;durP1;ratioP1;P2;durP2;ratioP2
8849;SDS011;5638;50.860;4.698;2022-09-30T00:00:26;3.67;;;2.97;;
8849;SDS011;5638;50.860;4.698;2022-09-30T00:02:53;5.93;;;3.67;;
8849;SDS011;5638;50.860;4.698;2022-09-30T00:05:19;4.23;;;3.40;;
8849;SDS011;5638;50.860;4.698;2022-09-30T00:07:45;4.57;;;3.67;;
8849;SDS011;5638;50.860;4.698;2022-09-30T00:10:10;4.60;;;3.70;;
8849;SDS011;5638;50.860;4.698;2022-09-30T00:12:39;8.13;;;4.13;;
8849;SDS011;5638;50.860;4.698;2022-09-30T00:15:05;5.67;;;4.27;;
8849;SDS011;5638;50.860;4.698;2022-09-30T00:17:31;5.67;;;4.13;;
8849;SDS011;5638;50.860;4.698;2022-09-30T00:19:57;6.50;;;3.90;;
8849;SDS011;5638;50.860;4.698;2022-09-30T00:22:23;6.13;;;4.60;;
8849;SDS011;5638;50.860;4.698;2022-09-30T00:24:49;7.47;;;4.20;;
8849;SDS011;5638;50.860;4.698;2022-09-30T00:27:15;5.57;;;4.27;;
8849;SDS011;5638;50.860;4.698;2022-09-30T00:29:42;8.70;;;4.97;;
8849;SDS011;5638;50.860;4.698;2022-09-30T00:32:09;5.20;;;4.30;;
8849;SDS011;5638;50.860;4.698;2022-09-30T00:34:35;14.90;;;4.97;;
8849;SDS011;5638;50.860;4.698;2022-09-30T00:37:01;8.70;;;4.67;;
8849;SDS011;5638;50.860;4.698;2022-09-30T00:39:27;11.57;;;4.60;;
8849;SDS011;5638;50.860;4.698;2022-09-30T00:41:58;8.73;;;4.33;;
8849;SDS011;5638;50.860;4.698;2022-09-30T00:50:24;5.03;;;3.83;;
8849;SDS011;5638;50.860;4.698;2022-09-30T00:53:22;8.73;;;3.53;;
8849;SDS011;5638;50.860;4.698;2022-09-30T00:56:06;5.30;;;4.00;;
8849;SDS011;5638;50.860;4.698;2022-09-30T00:58:44;8.00;;;3.90;;
8849;SDS011;5638;50.860;4.698;2022-09-30T01:01:20;5.67;;;3.43;;
8849;SDS011;5638;50.860;4.698;2022-09-30T01:03:48;5.67;;;3.87;;
8849;SDS011;5638;50.860;4.698;2022-09-30T01:06:23;8.60;;;3.90;;
8849;SDS011;5638;50.860;4.698;2022-09-30T01:08:49;5.77;;;4.30;;
8849;SDS011;5638;50.860;4.698;2022-09-30T01:11:16;4.90;;;3.57;;
8849;SDS011;5638;50.860;4.698;2022-09-30T01:13:43;5.53;;;3.80;;
8849;SDS011;5638;50.860;4.698;2022-09-30T01:22:15;9.03;;;4.43;;
8849;SDS011;5638;50.860;4.698;2022-09-30T01:33:38;6.47;;;4.30;;
8849;SDS011;5638;50.860;4.698;2022-09-30T01:39:20;5.63;;;4.10;;
8849;SDS011;5638;50.860;4.698;2022-09-30T01:45:20;8.10;;;4.47;;
8849;SDS011;5638;50.860;4.698;2022-09-30T01:50:51;4.40;;;3.83;;
8849;SDS011;5638;50.860;4.698;2022-09-30T01:56:45;9.17;;;4.93;;
8849;SDS011;5638;50.860;4.698;2022-09-30T01:59:20;6.10;;;4.53;;
8849;SDS011;5638;50.860;4.698;2022-09-30T02:02:15;4.10;;;3.70;;
8849;SDS011;5638;50.860;4.698;2022-09-30T02:04:49;5.57;;;4.30;;
8849;SDS011;5638;50.860;4.698;2022-09-30T02:10:34;5.67;;;4.27;;
8849;SDS011;5638;50.860;4.698;2022-09-30T02:13:12;4.80;;;3.70;;
8849;SDS011;5638;50.860;4.698;2022-09-30T02:15:52;4.87;;;4.13;;
8849;SDS011;5638;50.860;4.698;2022-09-30T02:18:28;8.37;;;5.07;;
8849;SDS011;5638;50.860;4.698;2022-09-30T02:21:05;6.70;;;4.23;;
8849;SDS011;5638;50.860;4.698;2022-09-30T02:23:35;5.60;;;4.20;;
8849;SDS011;5638;50.860;4.698;2022-09-30T02:26:08;8.20;;;4.47;;
8849;SDS011;5638;50.860;4.698;2022-09-30T02:28:48;6.20;;;4.17;;
8849;SDS011;5638;50.860;4.698;2022-09-30T02:31:28;8.77;;;3.87;;
8849;SDS011;5638;50.860;4.698;2022-09-30T02:34:05;9.27;;;4.30;;
8849;SDS011;5638;50.860;4.698;2022-09-30T02:36:52;5.90;;;4.20;;
8849;SDS011;5638;50.860;4.698;2022-09-30T02:39:31;5.93;;;4.40;;
8849;SDS011;5638;50.860;4.698;2022-09-30T02:42:21;7.00;;;4.63;;
8849;SDS011;5638;50.860;4.698;2022-09-30T02:44:53;4.97;;;4.43;;
8849;SDS011;5638;50.860;4.698;2022-09-30T02:50:28;6.57;;;4.07;;
8849;SDS011;5638;50.860;4.698;2022-09-30T02:53:28;7.60;;;4.27;;
8849;SDS011;5638;50.860;4.698;2022-09-30T02:59:17;5.73;;;4.23;;
8849;SDS011;5638;50.860;4.698;2022-09-30T03:01:43;4.07;;;3.70;;
8849;SDS011;5638;50.860;4.698;2022-09-30T03:04:11;5.50;;;4.67;;
8849;SDS011;5638;50.860;4.698;2022-09-30T03:06:40;5.00;;;4.23;;
8849;SDS011;5638;50.860;4.698;2022-09-30T03:09:06;4.73;;;4.03;;
8849;SDS011;5638;50.860;4.698;2022-09-30T03:11:33;7.93;;;4.63;;
8849;SDS011;5638;50.860;4.698;2022-09-30T03:25:31;6.03;;;4.03;;
8849;SDS011;5638;50.860;4.698;2022-09-30T03:28:44;6.00;;;4.47;;
8849;SDS011;5638;50.860;4.698;2022-09-30T03:31:51;4.60;;;4.20;;
8849;SDS011;5638;50.860;4.698;2022-09-30T03:43:50;5.37;;;4.40;;
8849;SDS011;5638;50.860;4.698;2022-09-30T03:46:34;5.67;;;4.40;;
8849;SDS011;5638;50.860;4.698;2022-09-30T03:49:14;7.73;;;4.70;;
8849;SDS011;5638;50.860;4.698;2022-09-30T03:51:48;6.93;;;4.33;;
8849;SDS011;5638;50.860;4.698;2022-09-30T03:54:14;7.27;;;4.57;;
8849;SDS011;5638;50.860;4.698;2022-09-30T03:56:40;5.03;;;4.50;;
8849;SDS011;5638;50.860;4.698;2022-09-30T03:59:23;6.47;;;4.33;;
8849;SDS011;5638;50.860;4.698;2022-09-30T04:01:52;5.43;;;4.50;;
8849;SDS011;5638;50.860;4.698;2022-09-30T04:04:19;4.70;;;3.93;;
8849;SDS011;5638;50.860;4.698;2022-09-30T04:06:45;5.87;;;4.40;;
8849;SDS011;5638;50.860;4.698;2022-09-30T04:09:11;6.10;;;4.53;;
8849;SDS011;5638;50.860;4.698;2022-09-30T04:11:37;7.37;;;4.83;;
8849;SDS011;5638;50.860;4.698;2022-09-30T04:14:03;5.47;;;4.83;;
8849;SDS011;5638;50.860;4.698;2022-09-30T04:16:30;9.57;;;4.90;;
8849;SDS011;5638;50.860;4.698;2022-09-30T04:18:57;6.47;;;4.80;;
8849;SDS011;5638;50.860;4.698;2022-09-30T04:21:23;7.30;;;4.47;;
8849;SDS011;5638;50.860;4.698;2022-09-30T04:23:53;9.03;;;5.00;;
8849;SDS011;5638;50.860;4.698;2022-09-30T04:26:19;5.87;;;5.27;;
8849;SDS011;5638;50.860;4.698;2022-09-30T04:28:45;8.70;;;5.27;;
8849;SDS011;5638;50.860;4.698;2022-09-30T04:31:12;7.03;;;4.77;;
8849;SDS011;5638;50.860;4.698;2022-09-30T04:33:42;5.57;;;4.77;;
8849;SDS011;5638;50.860;4.698;2022-09-30T04:36:09;7.17;;;5.50;;
8849;SDS011;5638;50.860;4.698;2022-09-30T04:38:35;9.07;;;6.33;;
8849;SDS011;5638;50.860;4.698;2022-09-30T04:41:02;7.20;;;5.60;;
8849;SDS011;5638;50.860;4.698;2022-09-30T04:43:30;9.03;;;5.60;;
8849;SDS011;5638;50.860;4.698;2022-09-30T04:45:58;7.27;;;5.50;;
8849;SDS011;5638;50.860;4.698;2022-09-30T04:48:24;7.47;;;5.10;;
8849;SDS011;5638;50.860;4.698;2022-09-30T04:50:52;6.17;;;5.20;;
8849;SDS011;5638;50.860;4.698;2022-09-30T04:53:18;5.20;;;4.70;;
8849;SDS011;5638;50.860;4.698;2022-09-30T04:55:44;6.77;;;5.27;;
8849;SDS011;5638;50.860;4.698;2022-09-30T04:58:11;7.63;;;5.27;;
8849;SDS011;5638;50.860;4.698;2022-09-30T05:00:37;6.80;;;5.30;;
8849;SDS011;5638;50.860;4.698;2022-09-30T05:03:03;6.43;;;4.90;;
8849;SDS011;5638;50.860;4.698;2022-09-30T05:05:30;6.33;;;5.13;;
8849;SDS011;5638;50.860;4.698;2022-09-30T05:08:03;8.60;;;5.00;;
8849;SDS011;5638;50.860;4.698;2022-09-30T05:10:30;5.90;;;5.03;;
8849;SDS011;5638;50.860;4.698;2022-09-30T05:12:56;5.97;;;5.00;;
8849;SDS011;5638;50.860;4.698;2022-09-30T05:15:22;8.83;;;5.07;;
8849;SDS011;5638;50.860;4.698;2022-09-30T05:17:49;6.93;;;4.97;;
8849;SDS011;5638;50.860;4.698;2022-09-30T05:20:16;6.20;;;5.20;;
8849;SDS011;5638;50.860;4.698;2022-09-30T05:22:43;6.57;;;5.40;;
8849;SDS011;5638;50.860;4.698;2022-09-30T05:25:08;7.03;;;5.07;;
8849;SDS011;5638;50.860;4.698;2022-09-30T05:27:34;12.00;;;6.07;;
8849;SDS011;5638;50.860;4.698;2022-09-30T05:30:00;8.97;;;6.00;;
8849;SDS011;5638;50.860;4.698;2022-09-30T05:32:27;14.93;;;6.17;;
8849;SDS011;5638;50.860;4.698;2022-09-30T05:34:54;10.90;;;5.87;;
8849;SDS011;5638;50.860;4.698;2022-09-30T05:37:20;11.57;;;5.80;;
8849;SDS011;5638;50.860;4.698;2022-09-30T05:39:46;12.77;;;6.67;;
8849;SDS011;5638;50.860;4.698;2022-09-30T05:42:11;10.80;;;5.90;;
8849;SDS011;5638;50.860;4.698;2022-09-30T05:44:37;12.23;;;6.23;;
8849;SDS011;5638;50.860;4.698;2022-09-30T05:47:03;11.33;;;6.43;;
8849;SDS011;5638;50.860;4.698;2022-09-30T05:49:29;29.37;;;7.07;;
8849;SDS011;5638;50.860;4.698;2022-09-30T05:51:56;6.80;;;5.67;;
8849;SDS011;5638;50.860;4.698;2022-09-30T05:54:21;13.37;;;6.70;;
8849;SDS011;5638;50.860;4.698;2022-09-30T05:56:47;13.63;;;6.30;;
8849;SDS011;5638;50.860;4.698;2022-09-30T05:59:13;10.43;;;6.33;;
8849;SDS011;5638;50.860;4.698;2022-09-30T06:01:39;7.53;;;5.70;;
8849;SDS011;5638;50.860;4.698;2022-09-30T06:04:04;10.00;;;7.00;;
8849;SDS011;5638;50.860;4.698;2022-09-30T06:06:30;14.93;;;6.83;;
8849;SDS011;5638;50.860;4.698;2022-09-30T06:08:56;10.93;;;6.57;;
8849;SDS011;5638;50.860;4.698;2022-09-30T06:11:22;10.17;;;7.17;;
8849;SDS011;5638;50.860;4.698;2022-09-30T06:13:49;11.40;;;8.30;;
8849;SDS011;5638;50.860;4.698;2022-09-30T06:16:16;10.30;;;8.00;;
8849;SDS011;5638;50.860;4.698;2022-09-30T06:18:43;17.40;;;8.90;;
8849;SDS011;5638;50.860;4.698;2022-09-30T06:21:11;12.47;;;7.97;;
8849;SDS011;5638;50.860;4.698;2022-09-30T06:23:39;18.73;;;8.23;;
8849;SDS011;5638;50.860;4.698;2022-09-30T06:26:07;10.57;;;7.93;;
8849;SDS011;5638;50.860;4.698;2022-09-30T06:28:36;13.50;;;8.17;;
8849;SDS011;5638;50.860;4.698;2022-09-30T06:31:03;11.47;;;7.80;;
8849;SDS011;5638;50.860;4.698;2022-09-30T06:33:30;10.80;;;8.17;;
8849;SDS011;5638;50.860;4.698;2022-09-30T06:35:57;10.53;;;8.50;;
8849;SDS011;5638;50.860;4.698;2022-09-30T06:38:23;10.93;;;8.53;;
8849;SDS011;5638;50.860;4.698;2022-09-30T06:40:51;9.43;;;7.47;;
8849;SDS011;5638;50.860;4.698;2022-09-30T06:43:17;15.57;;;7.73;;
8849;SDS011;5638;50.860;4.698;2022-09-30T06:45:44;14.23;;;7.73;;
8849;SDS011;5638;50.860;4.698;2022-09-30T06:48:12;9.20;;;7.30;;
8849;SDS011;5638;50.860;4.698;2022-09-30T06:50:40;12.97;;;7.83;;
8849;SDS011;5638;50.860;4.698;2022-09-30T06:53:07;10.57;;;7.83;;
8849;SDS011;5638;50.860;4.698;2022-09-30T06:55:37;8.20;;;7.40;;
8849;SDS011;5638;50.860;4.698;2022-09-30T06:58:08;9.43;;;7.70;;
8849;SDS011;5638;50.860;4.698;2022-09-30T07:00:39;12.60;;;8.33;;
8849;SDS011;5638;50.860;4.698;2022-09-30T07:03:05;12.13;;;8.20;;
8849;SDS011;5638;50.860;4.698;2022-09-30T07:05:35;11.77;;;8.20;;
8849;SDS011;5638;50.860;4.698;2022-09-30T07:08:02;9.17;;;8.03;;
8849;SDS011;5638;50.860;4.698;2022-09-30T07:10:30;10.57;;;8.90;;
8849;SDS011;5638;50.860;4.698;2022-09-30T07:12:56;13.60;;;8.20;;
8849;SDS011;5638;50.860;4.698;2022-09-30T07:15:23;9.17;;;7.30;;
8849;SDS011;5638;50.860;4.698;2022-09-30T07:17:49;8.90;;;7.20;;
8849;SDS011;5638;50.860;4.698;2022-09-30T07:20:21;15.60;;;8.20;;
8849;SDS011;5638;50.860;4.698;2022-09-30T07:22:47;14.60;;;8.07;;
8849;SDS011;5638;50.860;4.698;2022-09-30T07:25:13;9.33;;;8.30;;
8849;SDS011;5638;50.860;4.698;2022-09-30T07:27:39;14.27;;;8.90;;
8849;SDS011;5638;50.860;4.698;2022-09-30T07:30:06;12.70;;;8.90;;
8849;SDS011;5638;50.860;4.698;2022-09-30T07:32:33;10.83;;;9.17;;
8849;SDS011;5638;50.860;4.698;2022-09-30T07:34:59;12.47;;;9.93;;
8849;SDS011;5638;50.860;4.698;2022-09-30T07:37:25;12.03;;;9.93;;
8849;SDS011;5638;50.860;4.698;2022-09-30T07:39:51;10.33;;;9.23;;
8849;SDS011;5638;50.860;4.698;2022-09-30T07:42:18;14.33;;;9.30;;
8849;SDS011;5638;50.860;4.698;2022-09-30T07:44:47;12.70;;;9.67;;
8849;SDS011;5638;50.860;4.698;2022-09-30T07:47:16;11.87;;;9.10;;
8849;SDS011;5638;50.860;4.698;2022-09-30T07:49:43;14.20;;;10.03;;
8849;SDS011;5638;50.860;4.698;2022-09-30T07:52:10;10.73;;;8.83;;
8849;SDS011;5638;50.860;4.698;2022-09-30T07:54:37;12.37;;;9.13;;
8849;SDS011;5638;50.860;4.698;2022-09-30T07:57:04;11.27;;;8.87;;
8849;SDS011;5638;50.860;4.698;2022-09-30T07:59:31;14.10;;;9.43;;
8849;SDS011;5638;50.860;4.698;2022-09-30T08:02:02;10.87;;;9.73;;
8849;SDS011;5638;50.860;4.698;2022-09-30T08:04:32;12.87;;;9.67;;
8849;SDS011;5638;50.860;4.698;2022-09-30T08:06:59;11.97;;;8.77;;
8849;SDS011;5638;50.860;4.698;2022-09-30T08:09:28;13.53;;;9.60;;
8849;SDS011;5638;50.860;4.698;2022-09-30T08:11:55;13.13;;;9.77;;
8849;SDS011;5638;50.860;4.698;2022-09-30T08:14:22;16.07;;;9.60;;
8849;SDS011;5638;50.860;4.698;2022-09-30T08:16:51;15.03;;;10.40;;
8849;SDS011;5638;50.860;4.698;2022-09-30T08:19:21;13.73;;;9.83;;
8849;SDS011;5638;50.860;4.698;2022-09-30T08:21:49;15.30;;;10.10;;
8849;SDS011;5638;50.860;4.698;2022-09-30T08:24:17;15.83;;;9.23;;
8849;SDS011;5638;50.860;4.698;2022-09-30T08:26:44;15.27;;;9.07;;
8849;SDS011;5638;50.860;4.698;2022-09-30T08:29:10;15.57;;;10.27;;
8849;SDS011;5638;50.860;4.698;2022-09-30T08:31:37;12.47;;;9.20;;
8849;SDS011;5638;50.860;4.698;2022-09-30T08:34:05;14.73;;;10.27;;
8849;SDS011;5638;50.860;4.698;2022-09-30T08:36:30;12.13;;;9.03;;
8849;SDS011;5638;50.860;4.698;2022-09-30T08:38:56;11.40;;;7.60;;
8849;SDS011;5638;50.860;4.698;2022-09-30T08:50:12;10.17;;;7.67;;
8849;SDS011;5638;50.860;4.698;2022-09-30T08:53:10;8.33;;;7.33;;
8849;SDS011;5638;50.860;4.698;2022-09-30T08:55:49;10.70;;;8.67;;
8849;SDS011;5638;50.860;4.698;2022-09-30T08:58:32;10.93;;;8.03;;
8849;SDS011;5638;50.860;4.698;2022-09-30T09:03:50;10.87;;;8.10;;
8849;SDS011;5638;50.860;4.698;2022-09-30T09:06:19;11.70;;;8.00;;
8849;SDS011;5638;50.860;4.698;2022-09-30T09:08:59;10.80;;;7.43;;
8849;SDS011;5638;50.860;4.698;2022-09-30T09:17:24;13.83;;;8.23;;
8849;SDS011;5638;50.860;4.698;2022-09-30T09:20:21;10.40;;;8.13;;
8849;SDS011;5638;50.860;4.698;2022-09-30T09:22:53;9.00;;;6.50;;
8849;SDS011;5638;50.860;4.698;2022-09-30T09:25:20;9.33;;;6.47;;
8849;SDS011;5638;50.860;4.698;2022-09-30T09:27:56;7.57;;;6.57;;
8849;SDS011;5638;50.860;4.698;2022-09-30T09:30:38;7.27;;;5.73;;
8849;SDS011;5638;50.860;4.698;2022-09-30T09:33:20;13.10;;;6.80;;
8849;SDS011;5638;50.860;4.698;2022-09-30T09:36:02;8.83;;;6.27;;
8849;SDS011;5638;50.860;4.698;2022-09-30T09:45:33;8.70;;;6.23;;
8849;SDS011;5638;50.860;4.698;2022-09-30T09:48:21;9.57;;;6.40;;
8849;SDS011;5638;50.860;4.698;2022-09-30T09:56:01;11.53;;;5.53;;
8849;SDS011;5638;50.860;4.698;2022-09-30T10:01:46;9.23;;;4.97;;
8849;SDS011;5638;50.860;4.698;2022-09-30T10:04:23;5.93;;;3.53;;
8849;SDS011;5638;50.860;4.698;2022-09-30T10:06:58;6.37;;;4.10;;
8849;SDS011;5638;50.860;4.698;2022-09-30T10:09:33;5.97;;;3.90;;
8849;SDS011;5638;50.860;4.698;2022-09-30T10:14:43;4.13;;;3.43;;
8849;SDS011;5638;50.860;4.698;2022-09-30T10:17:26;4.27;;;3.20;;
8849;SDS011;5638;50.860;4.698;2022-09-30T10:20:22;6.33;;;4.20;;
8849;SDS011;5638;50.860;4.698;2022-09-30T10:22:58;3.80;;;2.80;;
8849;SDS011;5638;50.860;4.698;2022-09-30T10:25:53;3.63;;;2.90;;
8849;SDS011;5638;50.860;4.698;2022-09-30T10:28:26;4.53;;;2.77;;
8849;SDS011;5638;50.860;4.698;2022-09-30T10:36:16;2.30;;;1.83;;
8849;SDS011;5638;50.860;4.698;2022-09-30T10:41:30;1.50;;;1.40;;
8849;SDS011;5638;50.860;4.698;2022-09-30T10:44:00;2.70;;;2.07;;
8849;SDS011;5638;50.860;4.698;2022-09-30T10:46:32;2.83;;;1.97;;
8849;SDS011;5638;50.860;4.698;2022-09-30T10:49:07;2.97;;;1.37;;
8849;SDS011;5638;50.860;4.698;2022-09-30T10:51:56;2.83;;;1.60;;
8849;SDS011;5638;50.860;4.698;2022-09-30T10:57:20;2.20;;;1.87;;
8849;SDS011;5638;50.860;4.698;2022-09-30T10:59:58;3.40;;;1.60;;
8849;SDS011;5638;50.860;4.698;2022-09-30T11:02:40;3.50;;;1.60;;
8849;SDS011;5638;50.860;4.698;2022-09-30T11:05:15;2.20;;;1.43;;
8849;SDS011;5638;50.860;4.698;2022-09-30T11:08:27;2.60;;;1.50;;
8849;SDS011;5638;50.860;4.698;2022-09-30T11:11:12;1.53;;;1.30;;
8849;SDS011;5638;50.860;4.698;2022-09-30T11:13:48;1.27;;;1.17;;
8849;SDS011;5638;50.860;4.698;2022-09-30T11:16:46;2.53;;;1.60;;
8849;SDS011;5638;50.860;4.698;2022-09-30T11:19:28;1.40;;;1.07;;
8849;SDS011;5638;50.860;4.698;2022-09-30T11:25:18;2.07;;;1.30;;
8849;SDS011;5638;50.860;4.698;2022-09-30T11:31:07;4.53;;;1.80;;
8849;SDS011;5638;50.860;4.698;2022-09-30T11:42:53;2.63;;;1.80;;
8849;SDS011;5638;50.860;4.698;2022-09-30T11:57:30;13.43;;;1.97;;
8849;SDS011;5638;50.860;4.698;2022-09-30T12:02:40;2.80;;;2.00;;
8849;SDS011;5638;50.860;4.698;2022-09-30T12:05:30;5.53;;;2.70;;
8849;SDS011;5638;50.860;4.698;2022-09-30T12:08:47;5.93;;;2.80;;
8849;SDS011;5638;50.860;4.698;2022-09-30T12:11:06;3.30;;;2.67;;
8849;SDS011;5638;50.860;4.698;2022-09-30T12:13:40;3.60;;;2.37;;
8849;SDS011;5638;50.860;4.698;2022-09-30T12:16:17;5.77;;;2.63;;
8849;SDS011;5638;50.860;4.698;2022-09-30T12:18:55;3.13;;;2.43;;
8849;SDS011;5638;50.860;4.698;2022-09-30T12:21:33;4.00;;;2.60;;
8849;SDS011;5638;50.860;4.698;2022-09-30T12:24:10;4.43;;;2.57;;
8849;SDS011;5638;50.860;4.698;2022-09-30T12:26:53;3.13;;;2.57;;
8849;SDS011;5638;50.860;4.698;2022-09-30T12:29:22;4.13;;;2.37;;
8849;SDS011;5638;50.860;4.698;2022-09-30T12:35:23;4.23;;;2.00;;
8849;SDS011;5638;50.860;4.698;2022-09-30T12:49:27;2.50;;;2.10;;
8849;SDS011;5638;50.860;4.698;2022-09-30T12:51:58;2.57;;;2.00;;
8849;SDS011;5638;50.860;4.698;2022-09-30T12:54:34;2.73;;;2.00;;
8849;SDS011;5638;50.860;4.698;2022-09-30T12:57:07;2.40;;;1.93;;
8849;SDS011;5638;50.860;4.698;2022-09-30T12:59:35;2.70;;;2.20;;
8849;SDS011;5638;50.860;4.698;2022-09-30T13:02:21;3.20;;;2.23;;
8849;SDS011;5638;50.860;4.698;2022-09-30T13:23:42;2.67;;;1.97;;
8849;SDS011;5638;50.860;4.698;2022-09-30T13:28:51;3.77;;;1.93;;
8849;SDS011;5638;50.860;4.698;2022-09-30T13:34:12;3.33;;;2.00;;
8849;SDS011;5638;50.860;4.698;2022-09-30T13:44:55;2.27;;;1.87;;
8849;SDS011;5638;50.860;4.698;2022-09-30T13:47:32;3.20;;;2.20;;
8849;SDS011;5638;50.860;4.698;2022-09-30T13:52:50;2.87;;;1.70;;
8849;SDS011;5638;50.860;4.698;2022-09-30T13:55:34;2.83;;;1.70;;
8849;SDS011;5638;50.860;4.698;2022-09-30T14:10:30;2.87;;;1.37;;
8849;SDS011;5638;50.860;4.698;2022-09-30T14:20:02;1.40;;;1.30;;
8849;SDS011;5638;50.860;4.698;2022-09-30T14:23:16;1.67;;;1.27;;
8849;SDS011;5638;50.860;4.698;2022-09-30T14:28:51;2.47;;;1.40;;
8849;SDS011;5638;50.860;4.698;2022-09-30T14:31:43;1.40;;;1.30;;
8849;SDS011;5638;50.860;4.698;2022-09-30T14:34:11;1.90;;;1.40;;
8849;SDS011;5638;50.860;4.698;2022-09-30T14:36:40;1.40;;;1.30;;
8849;SDS011;5638;50.860;4.698;2022-09-30T14:39:15;1.97;;;1.47;;
8849;SDS011;5638;50.860;4.698;2022-09-30T14:41:56;3.50;;;1.33;;
8849;SDS011;5638;50.860;4.698;2022-09-30T14:44:27;1.57;;;1.47;;
8849;SDS011;5638;50.860;4.698;2022-09-30T14:47:00;1.87;;;1.60;;
8849;SDS011;5638;50.860;4.698;2022-09-30T14:49:30;2.00;;;1.50;;
8849;SDS011;5638;50.860;4.698;2022-09-30T14:52:00;1.50;;;1.40;;
8849;SDS011;5638;50.860;4.698;2022-09-30T14:54:28;1.63;;;1.20;;
8849;SDS011;5638;50.860;4.698;2022-09-30T14:56:58;1.40;;;1.30;;
8849;SDS011;5638;50.860;4.698;2022-09-30T14:59:28;2.60;;;1.40;;
8849;SDS011;5638;50.860;4.698;2022-09-30T15:02:09;1.60;;;1.40;;
8849;SDS011;5638;50.860;4.698;2022-09-30T15:04:45;3.90;;;1.40;;
8849;SDS011;5638;50.860;4.698;2022-09-30T15:07:16;2.40;;;1.23;;
8849;SDS011;5638;50.860;4.698;2022-09-30T15:09:43;2.00;;;1.63;;
8849;SDS011;5638;50.860;4.698;2022-09-30T15:12:15;1.30;;;1.20;;
8849;SDS011;5638;50.860;4.698;2022-09-30T15:14:51;2.30;;;1.50;;
8849;SDS011;5638;50.860;4.698;2022-09-30T15:17:19;2.30;;;1.50;;
8849;SDS011;5638;50.860;4.698;2022-09-30T15:19:49;1.80;;;1.40;;
8849;SDS011;5638;50.860;4.698;2022-09-30T15:22:15;2.20;;;1.63;;
8849;SDS011;5638;50.860;4.698;2022-09-30T15:24:43;2.23;;;1.67;;
8849;SDS011;5638;50.860;4.698;2022-09-30T15:27:24;1.80;;;1.63;;
8849;SDS011;5638;50.860;4.698;2022-09-30T15:29:56;1.67;;;1.50;;
8849;SDS011;5638;50.860;4.698;2022-09-30T15:32:46;1.90;;;1.50;;
8849;SDS011;5638;50.860;4.698;2022-09-30T15:35:20;3.27;;;1.80;;
8849;SDS011;5638;50.860;4.698;2022-09-30T15:37:47;1.60;;;1.43;;
8849;SDS011;5638;50.860;4.698;2022-09-30T15:40:16;3.20;;;2.00;;
8849;SDS011;5638;50.860;4.698;2022-09-30T15:43:06;1.50;;;1.40;;
8849;SDS011;5638;50.860;4.698;2022-09-30T15:45:36;2.17;;;1.70;;
8849;SDS011;5638;50.860;4.698;2022-09-30T15:50:57;1.97;;;1.40;;
8849;SDS011;5638;50.860;4.698;2022-09-30T15:53:29;1.73;;;1.50;;
8849;SDS011;5638;50.860;4.698;2022-09-30T15:58:54;1.70;;;1.33;;
8849;SDS011;5638;50.860;4.698;2022-09-30T16:01:35;1.60;;;1.43;;
8849;SDS011;5638;50.860;4.698;2022-09-30T16:14:54;3.73;;;1.80;;
8849;SDS011;5638;50.860;4.698;2022-09-30T16:17:33;2.13;;;1.67;;
8849;SDS011;5638;50.860;4.698;2022-09-30T16:20:05;2.93;;;1.57;;
8849;SDS011;5638;50.860;4.698;2022-09-30T16:25:25;1.50;;;1.40;;
8849;SDS011;5638;50.860;4.698;2022-09-30T16:30:26;1.70;;;1.60;;
8849;SDS011;5638;50.860;4.698;2022-09-30T16:32:57;1.73;;;1.60;;
8849;SDS011;5638;50.860;4.698;2022-09-30T16:35:28;2.10;;;1.60;;
8849;SDS011;5638;50.860;4.698;2022-09-30T16:37:58;2.27;;;1.80;;
8849;SDS011;5638;50.860;4.698;2022-09-30T16:40:27;2.77;;;1.60;;
8849;SDS011;5638;50.860;4.698;2022-09-30T16:42:55;1.67;;;1.40;;
8849;SDS011;5638;50.860;4.698;2022-09-30T16:45:24;4.03;;;2.00;;
8849;SDS011;5638;50.860;4.698;2022-09-30T16:47:52;2.20;;;1.80;;
8849;SDS011;5638;50.860;4.698;2022-09-30T16:50:24;1.37;;;1.27;;
8849;SDS011;5638;50.860;4.698;2022-09-30T16:53:03;1.73;;;1.63;;
8849;SDS011;5638;50.860;4.698;2022-09-30T16:55:30;2.27;;;1.53;;
8849;SDS011;5638;50.860;4.698;2022-09-30T16:57:57;2.07;;;1.60;;
8849;SDS011;5638;50.860;4.698;2022-09-30T17:00:24;2.23;;;1.60;;
8849;SDS011;5638;50.860;4.698;2022-09-30T17:02:52;1.77;;;1.60;;
8849;SDS011;5638;50.860;4.698;2022-09-30T17:05:20;2.00;;;1.70;;
8849;SDS011;5638;50.860;4.698;2022-09-30T17:07:55;1.60;;;1.50;;
8849;SDS011;5638;50.860;4.698;2022-09-30T17:10:25;6.77;;;1.40;;
8849;SDS011;5638;50.860;4.698;2022-09-30T17:12:57;2.90;;;1.80;;
8849;SDS011;5638;50.860;4.698;2022-09-30T17:15:24;2.00;;;1.70;;
8849;SDS011;5638;50.860;4.698;2022-09-30T17:17:51;2.20;;;1.57;;
8849;SDS011;5638;50.860;4.698;2022-09-30T17:20:17;3.17;;;1.63;;
8849;SDS011;5638;50.860;4.698;2022-09-30T17:22:44;1.70;;;1.60;;
8849;SDS011;5638;50.860;4.698;2022-09-30T17:25:10;2.00;;;1.80;;
8849;SDS011;5638;50.860;4.698;2022-09-30T17:27:37;2.27;;;1.90;;
8849;SDS011;5638;50.860;4.698;2022-09-30T17:30:03;1.60;;;1.50;;
8849;SDS011;5638;50.860;4.698;2022-09-30T17:32:31;4.97;;;1.70;;
8849;SDS011;5638;50.860;4.698;2022-09-30T17:34:57;1.60;;;1.50;;
8849;SDS011;5638;50.860;4.698;2022-09-30T17:37:23;1.33;;;1.20;;
8849;SDS011;5638;50.860;4.698;2022-09-30T17:39:51;6.90;;;1.40;;
8849;SDS011;5638;50.860;4.698;2022-09-30T17:42:17;1.90;;;1.50;;
8849;SDS011;5638;50.860;4.698;2022-09-30T17:45:01;3.37;;;1.77;;
8849;SDS011;5638;50.860;4.698;2022-09-30T17:47:28;1.97;;;1.70;;
8849;SDS011;5638;50.860;4.698;2022-09-30T17:49:54;1.53;;;1.43;;
8849;SDS011;5638;50.860;4.698;2022-09-30T17:52:20;1.50;;;1.20;;
8849;SDS011;5638;50.860;4.698;2022-09-30T17:54:49;1.40;;;1.23;;
8849;SDS011;5638;50.860;4.698;2022-09-30T17:57:18;1.60;;;1.40;;
8849;SDS011;5638;50.860;4.698;2022-09-30T17:59:45;2.97;;;1.70;;
8849;SDS011;5638;50.860;4.698;2022-09-30T18:02:12;2.40;;;1.47;;
8849;SDS011;5638;50.860;4.698;2022-09-30T18:04:40;1.50;;;1.30;;
8849;SDS011;5638;50.860;4.698;2022-09-30T18:07:06;2.60;;;1.43;;
8849;SDS011;5638;50.860;4.698;2022-09-30T18:09:32;1.53;;;1.30;;
8849;SDS011;5638;50.860;4.698;2022-09-30T18:12:00;5.30;;;1.53;;
8849;SDS011;5638;50.860;4.698;2022-09-30T18:14:28;1.77;;;1.53;;
8849;SDS011;5638;50.860;4.698;2022-09-30T18:16:59;1.73;;;1.53;;
8849;SDS011;5638;50.860;4.698;2022-09-30T18:19:27;1.50;;;1.40;;
8849;SDS011;5638;50.860;4.698;2022-09-30T18:21:53;1.90;;;1.67;;
8849;SDS011;5638;50.860;4.698;2022-09-30T18:24:18;2.60;;;1.60;;
8849;SDS011;5638;50.860;4.698;2022-09-30T18:27:05;1.70;;;1.60;;
8849;SDS011;5638;50.860;4.698;2022-09-30T18:29:31;1.90;;;1.60;;
8849;SDS011;5638;50.860;4.698;2022-09-30T18:31:57;2.10;;;1.63;;
8849;SDS011;5638;50.860;4.698;2022-09-30T18:34:23;1.50;;;1.40;;
8849;SDS011;5638;50.860;4.698;2022-09-30T18:36:49;2.43;;;1.70;;
8849;SDS011;5638;50.860;4.698;2022-09-30T18:39:15;1.63;;;1.40;;
8849;SDS011;5638;50.860;4.698;2022-09-30T18:41:41;1.77;;;1.57;;
8849;SDS011;5638;50.860;4.698;2022-09-30T18:44:08;2.93;;;1.77;;
8849;SDS011;5638;50.860;4.698;2022-09-30T18:46:35;3.63;;;1.83;;
8849;SDS011;5638;50.860;4.698;2022-09-30T18:49:01;8.73;;;1.73;;
8849;SDS011;5638;50.860;4.698;2022-09-30T18:51:28;2.63;;;1.70;;
8849;SDS011;5638;50.860;4.698;2022-09-30T18:53:55;2.27;;;1.77;;
8849;SDS011;5638;50.860;4.698;2022-09-30T18:56:25;3.00;;;1.50;;
8849;SDS011;5638;50.860;4.698;2022-09-30T18:58:59;1.70;;;1.50;;
8849;SDS011;5638;50.860;4.698;2022-09-30T19:01:28;3.27;;;1.83;;
8849;SDS011;5638;50.860;4.698;2022-09-30T19:04:00;2.00;;;1.80;;
8849;SDS011;5638;50.860;4.698;2022-09-30T19:06:27;6.07;;;1.90;;
8849;SDS011;5638;50.860;4.698;2022-09-30T19:08:52;2.23;;;1.80;;
8849;SDS011;5638;50.860;4.698;2022-09-30T19:11:19;2.00;;;1.80;;
8849;SDS011;5638;50.860;4.698;2022-09-30T19:13:49;2.27;;;1.77;;
8849;SDS011;5638;50.860;4.698;2022-09-30T19:16:17;2.90;;;1.70;;
8849;SDS011;5638;50.860;4.698;2022-09-30T19:18:44;2.53;;;1.70;;
8849;SDS011;5638;50.860;4.698;2022-09-30T19:21:12;2.70;;;2.00;;
8849;SDS011;5638;50.860;4.698;2022-09-30T19:23:41;6.07;;;2.03;;
8849;SDS011;5638;50.860;4.698;2022-09-30T19:26:07;2.57;;;1.87;;
8849;SDS011;5638;50.860;4.698;2022-09-30T19:28:34;2.50;;;2.07;;
8849;SDS011;5638;50.860;4.698;2022-09-30T19:31:10;2.57;;;1.77;;
8849;SDS011;5638;50.860;4.698;2022-09-30T19:33:39;2.70;;;2.00;;